Time;durP1;ratioP1;P1;durP2;ratioP2;P2;SDS_P1;SDS_P2;PMS_P1;PMS_P2;Temp;Humidity;BMP_temperature;BMP_pressure;BME280_temperature;BME280_humidity;BME280_pressure;Samples;Min_cycle;Max_cycle;Signal;HPM_P1;HPM_P2
2023/02/14 00:01:48;;;;;;;34.55;21.90;;;5.30;99.90;;;;;;5099124;28;20124;-77
2023/02/14 00:04:16;;;;;;;31.27;20.20;;;5.30;99.90;;;;;;5102057;28;20030;-77
2023/02/14 00:06:42;;;;;;;34.65;23.70;;;5.30;99.90;;;;;;5099744;28;20024;-77
2023/02/14 00:09:11;;;;;;;38.65;25.60;;;5.30;99.90;;;;;;5084205;28;20019;-77
2023/02/14 00:11:38;;;;;;;35.92;22.50;;;5.20;99.90;;;;;;5101450;28;20131;-77
2023/02/14 00:16:49;;;;;;;31.80;21.60;;;5.10;99.90;;;;;;5101361;28;20509;-77
2023/02/14 00:19:17;;;;;;;34.55;22.00;;;5.10;99.90;;;;;;5081666;28;20060;-77
2023/02/14 00:21:43;;;;;;;31.58;22.00;;;5.00;99.90;;;;;;5102480;28;20493;-77
2023/02/14 00:24:18;;;;;;;31.20;20.88;;;5.00;99.90;;;;;;5099109;28;20099;-77
2023/02/14 00:26:44;;;;;;;33.22;22.35;;;5.00;99.90;;;;;;5103010;28;20019;-77
2023/02/14 00:29:12;;;;;;;34.58;22.52;;;5.00;99.90;;;;;;5098924;28;20239;-77
2023/02/14 00:31:39;;;;;;;34.03;21.73;;;5.00;99.90;;;;;;5080717;28;20023;-77
2023/02/14 00:34:05;;;;;;;34.72;21.92;;;5.00;99.90;;;;;;5081292;28;20039;-77
2023/02/14 00:36:31;;;;;;;33.17;21.38;;;5.10;99.90;;;;;;5103419;28;20067;-77
2023/02/14 00:38:57;;;;;;;32.17;20.25;;;5.10;99.90;;;;;;5104015;28;20020;-77
2023/02/14 00:41:22;;;;;;;35.78;22.95;;;5.10;99.90;;;;;;5103179;28;20024;-77
2023/02/14 00:43:51;;;;;;;34.85;22.23;;;5.10;99.90;;;;;;5085681;28;20016;-77
2023/02/14 00:46:18;;;;;;;35.70;22.40;;;5.00;99.90;;;;;;5106191;28;20428;-77
2023/02/14 00:48:45;;;;;;;36.05;22.05;;;5.00;99.90;;;;;;5104013;28;20632;-77
2023/02/14 00:51:11;;;;;;;33.90;21.65;;;5.00;99.90;;;;;;5103207;28;20024;-77
2023/02/14 00:53:37;;;;;;;31.13;20.85;;;4.90;99.90;;;;;;5103338;28;20020;-77
2023/02/14 00:56:03;;;;;;;32.55;20.85;;;5.00;99.90;;;;;;5106269;28;20506;-77
2023/02/14 00:58:29;;;;;;;32.08;20.45;;;5.00;99.90;;;;;;5105802;28;20027;-77
2023/02/14 01:00:56;;;;;;;33.55;21.05;;;5.00;99.90;;;;;;5101972;28;20027;-77
2023/02/14 01:03:22;;;;;;;32.05;20.55;;;5.00;99.90;;;;;;5105204;28;20467;-77
2023/02/14 01:05:48;;;;;;;34.60;20.40;;;5.00;99.90;;;;;;5084777;28;20065;-77
2023/02/14 01:08:14;;;;;;;38.28;22.17;;;5.10;99.90;;;;;;5105463;28;20024;-77
2023/02/14 01:10:41;;;;;;;31.83;20.85;;;5.10;99.90;;;;;;5085862;28;20639;-76
2023/02/14 01:13:07;;;;;;;34.13;21.55;;;5.00;99.90;;;;;;5103408;28;20071;-77
2023/02/14 01:15:39;;;;;;;39.35;22.40;;;4.90;99.90;;;;;;5106018;28;20051;-77
2023/02/14 01:18:05;;;;;;;33.92;21.73;;;4.90;99.90;;;;;;5085654;28;20203;-77
2023/02/14 01:20:32;;;;;;;32.55;21.52;;;4.80;99.90;;;;;;5084276;28;20027;-76
2023/02/14 01:22:57;;;;;;;31.95;20.83;;;4.80;99.90;;;;;;5106401;28;20034;-77
2023/02/14 01:25:23;;;;;;;28.08;19.75;;;4.70;99.90;;;;;;5102333;28;20024;-77
2023/02/14 01:27:49;;;;;;;32.58;19.15;;;4.80;99.90;;;;;;5102356;28;20475;-77
2023/02/14 01:30:15;;;;;;;29.90;18.92;;;4.80;99.90;;;;;;5082572;28;20119;-77
2023/02/14 01:32:41;;;;;;;32.47;19.60;;;4.80;99.90;;;;;;5084756;28;20020;-77
2023/02/14 01:35:07;;;;;;;28.60;18.92;;;4.90;99.90;;;;;;5105151;28;20028;-77
2023/02/14 01:37:33;;;;;;;30.50;19.50;;;5.00;99.90;;;;;;5102703;28;20480;-77
2023/02/14 01:39:59;;;;;;;29.83;19.05;;;5.00;99.90;;;;;;5104046;28;20157;-77
2023/02/14 01:42:25;;;;;;;33.22;20.73;;;5.00;99.90;;;;;;5104298;28;20066;-77
2023/02/14 01:45:04;;;;;;;35.28;20.90;;;4.90;99.90;;;;;;5084067;28;20024;-77
2023/02/14 01:47:35;;;;;;;28.27;19.50;;;4.90;99.90;;;;;;5101499;28;20502;-77
2023/02/14 01:50:27;;;;;;;31.38;20.98;;;4.80;99.90;;;;;;5101863;28;20069;-77
2023/02/14 01:53:05;;;;;;;31.35;20.20;;;4.80;99.90;;;;;;5097804;28;20037;-76
2023/02/14 01:55:34;;;;;;;31.08;18.92;;;4.70;99.90;;;;;;5084186;28;20510;-77
2023/02/14 01:58:09;;;;;;;31.02;20.45;;;4.70;99.90;;;;;;5098511;28;20097;-77
2023/02/14 02:03:21;;;;;;;32.90;20.55;;;4.80;99.90;;;;;;5099970;28;20521;-77
2023/02/14 02:05:50;;;;;;;29.90;19.55;;;4.80;99.90;;;;;;5104694;28;20028;-76
2023/02/14 02:08:16;;;;;;;27.48;19.13;;;4.70;99.90;;;;;;5101401;28;20042;-77
2023/02/14 02:10:42;;;;;;;29.30;19.80;;;4.70;99.90;;;;;;5100840;28;20051;-77
2023/02/14 02:13:15;;;;;;;31.25;19.80;;;4.70;99.90;;;;;;5103803;28;20426;-77
2023/02/14 02:16:07;;;;;;;32.67;20.73;;;4.80;99.90;;;;;;5097724;28;20020;-77
2023/02/14 02:18:58;;;;;;;31.60;19.08;;;4.80;99.90;;;;;;5065168;28;20025;-77
2023/02/14 02:21:56;;;;;;;28.00;18.80;;;4.80;99.90;;;;;;5099913;28;20364;-77
2023/02/14 02:24:39;;;;;;;31.27;18.80;;;4.80;99.90;;;;;;5085623;28;20050;-77
2023/02/14 02:27:30;;;;;;;27.95;18.98;;;4.70;99.90;;;;;;5099424;28;20024;-77
2023/02/14 02:30:28;;;;;;;27.45;19.08;;;4.60;99.90;;;;;;5092788;28;20464;-77
2023/02/14 02:33:12;;;;;;;30.10;19.67;;;4.50;99.90;;;;;;5093551;28;20032;-77
2023/02/14 02:35:44;;;;;;;27.63;18.48;;;4.50;99.90;;;;;;5082631;28;20027;-77
2023/02/14 02:38:37;;;;;;;30.45;19.30;;;4.50;99.90;;;;;;5084841;28;20023;-77
2023/02/14 02:41:13;;;;;;;32.45;18.67;;;4.50;99.90;;;;;;5082465;28;20502;-77
2023/02/14 02:43:51;;;;;;;32.75;20.25;;;4.50;99.90;;;;;;5080789;28;20506;-77
2023/02/14 02:46:48;;;;;;;31.00;19.10;;;4.50;99.90;;;;;;5082982;28;20039;-77
2023/02/14 02:55:28;;;;;;;27.75;19.25;;;4.40;99.90;;;;;;5098799;28;20036;-77
2023/02/14 02:57:55;;;;;;;29.92;20.20;;;4.40;99.90;;;;;;5082612;28;20019;-77
2023/02/14 03:00:24;;;;;;;31.13;20.45;;;4.30;99.90;;;;;;5099246;28;20073;-77
2023/02/14 03:05:38;;;;;;;35.15;20.98;;;4.10;99.90;;;;;;5099196;28;20038;-77
2023/02/14 03:08:04;;;;;;;31.58;20.55;;;4.20;99.90;;;;;;5101538;28;20047;-77
2023/02/14 03:10:34;;;;;;;32.20;20.08;;;4.20;99.90;;;;;;5103428;28;20052;-77
2023/02/14 03:13:26;;;;;;;29.80;18.90;;;4.20;99.90;;;;;;5079734;28;20083;-77
2023/02/14 03:15:52;;;;;;;28.10;19.10;;;4.30;99.90;;;;;;5099209;28;20024;-77
2023/02/14 03:18:32;;;;;;;28.15;19.02;;;4.30;99.90;;;;;;5083340;28;20042;-77
2023/02/14 03:21:21;;;;;;;29.48;19.40;;;4.30;99.90;;;;;;5098648;28;20115;-77
2023/02/14 03:23:56;;;;;;;33.70;19.33;;;4.30;99.90;;;;;;5061312;28;20495;-77
2023/02/14 03:26:33;;;;;;;28.27;18.58;;;4.20;99.90;;;;;;5103417;28;20494;-77
2023/02/14 03:29:20;;;;;;;29.00;18.92;;;4.10;99.90;;;;;;5100435;28;20028;-77
2023/02/14 03:32:10;;;;;;;27.92;19.48;;;4.20;99.90;;;;;;5099961;28;20016;-77
2023/02/14 03:34:42;;;;;;;31.35;19.00;;;4.20;99.90;;;;;;5097735;28;20024;-77
2023/02/14 03:37:14;;;;;;;26.42;18.33;;;4.20;99.90;;;;;;5085264;28;20039;-77
2023/02/14 03:40:28;;;;;;;29.08;19.42;;;4.20;99.90;;;;;;5102255;28;20031;-77
2023/02/14 03:43:00;;;;;;;26.55;17.90;;;4.10;99.90;;;;;;5019169;28;20036;-77
2023/02/14 03:45:34;;;;;;;33.40;18.10;;;4.10;99.90;;;;;;5017863;28;20029;-77
2023/02/14 03:48:05;;;;;;;30.92;19.08;;;4.20;99.90;;;;;;5078914;28;20502;-76
2023/02/14 03:50:33;;;;;;;29.70;19.40;;;4.20;99.90;;;;;;5084766;28;20020;-77
2023/02/14 03:53:00;;;;;;;30.45;20.27;;;4.00;99.90;;;;;;5078492;28;20450;-77
2023/02/14 03:55:39;;;;;;;27.17;18.23;;;3.80;99.90;;;;;;5083876;28;20375;-76
2023/02/14 03:58:20;;;;;;;26.25;18.52;;;3.90;99.90;;;;;;5099239;28;20084;-77
2023/02/14 04:00:49;;;;;;;26.40;18.20;;;4.00;99.90;;;;;;5081088;28;20586;-77
2023/02/14 04:03:17;;;;;;;26.33;17.73;;;4.10;99.90;;;;;;5096802;28;20027;-77
2023/02/14 04:05:45;;;;;;;24.55;18.08;;;4.20;99.90;;;;;;5101573;28;20015;-77
2023/02/14 04:08:19;;;;;;;31.38;18.00;;;4.20;99.90;;;;;;5102680;28;20103;-77
2023/02/14 04:10:45;;;;;;;29.92;19.42;;;4.10;99.90;;;;;;5098543;28;20209;-77
2023/02/14 04:13:10;;;;;;;29.85;19.23;;;3.90;99.90;;;;;;5105332;28;20024;-77
2023/02/14 04:15:36;;;;;;;28.05;18.48;;;3.90;99.90;;;;;;5088032;28;20028;-77
2023/02/14 04:20:46;;;;;;;27.98;18.70;;;3.90;99.90;;;;;;5103964;28;20039;-77
2023/02/14 04:23:11;;;;;;;27.40;19.45;;;3.80;99.90;;;;;;5103799;28;20024;-77
2023/02/14 04:25:39;;;;;;;30.05;18.90;;;3.70;99.90;;;;;;5104321;28;20027;-77
2023/02/14 04:28:04;;;;;;;26.88;18.20;;;3.60;99.90;;;;;;5085232;28;20028;-77
2023/02/14 04:30:30;;;;;;;28.30;19.85;;;3.60;99.90;;;;;;5119379;27;20019;-77
2023/02/14 04:32:56;;;;;;;31.00;18.90;;;3.60;99.90;;;;;;5103359;28;20032;-77
2023/02/14 04:35:21;;;;;;;26.23;17.80;;;3.50;99.90;;;;;;5122089;27;20112;-77
2023/02/14 04:37:47;;;;;;;29.75;18.75;;;3.50;99.90;;;;;;5104629;28;20028;-77
2023/02/14 04:40:15;;;;;;;28.63;18.77;;;3.60;99.90;;;;;;5104672;28;20063;-77
2023/02/14 04:42:42;;;;;;;26.58;17.33;;;3.60;99.90;;;;;;5088201;28;20143;-77
2023/02/14 04:45:07;;;;;;;27.88;18.63;;;3.70;99.90;;;;;;5103572;28;20050;-77
2023/02/14 04:47:33;;;;;;;28.05;17.15;;;3.70;99.90;;;;;;5107193;28;20420;-77
2023/02/14 04:49:59;;;;;;;28.80;18.10;;;3.60;99.90;;;;;;5120205;27;20119;-77
2023/02/14 04:52:28;;;;;;;24.27;16.40;;;3.60;99.90;;;;;;5105931;28;20027;-77
2023/02/14 04:54:53;;;;;;;28.75;17.20;;;3.60;99.90;;;;;;5099638;28;20103;-77
2023/02/14 04:57:19;;;;;;;22.05;15.75;;;3.40;99.90;;;;;;5087363;28;20120;-77
2023/02/14 04:59:48;;;;;;;24.90;15.77;;;3.30;99.90;;;;;;5106010;28;20093;-77
2023/02/14 05:02:14;;;;;;;24.83;15.82;;;3.40;99.90;;;;;;5118749;27;20028;-77
2023/02/14 05:04:40;;;;;;;24.60;16.35;;;3.40;99.90;;;;;;5105762;28;20035;-77
2023/02/14 05:07:06;;;;;;;27.15;16.80;;;3.50;99.90;;;;;;5085656;28;20074;-77
2023/02/14 05:09:31;;;;;;;27.63;16.83;;;3.50;99.90;;;;;;5119977;27;20062;-77
2023/02/14 05:11:57;;;;;;;24.90;15.85;;;3.60;99.90;;;;;;5087267;28;20079;-77
2023/02/14 05:14:22;;;;;;;25.70;16.92;;;3.60;99.90;;;;;;5102694;28;20032;-77
2023/02/14 05:16:48;;;;;;;24.60;15.43;;;3.70;99.90;;;;;;5105328;28;20479;-77
2023/02/14 05:19:14;;;;;;;24.52;16.38;;;3.70;99.90;;;;;;5103776;28;20035;-77
2023/02/14 05:21:39;;;;;;;25.75;16.70;;;3.70;99.90;;;;;;5103409;28;20043;-77
2023/02/14 05:24:05;;;;;;;26.45;16.13;;;3.70;99.90;;;;;;5104616;28;20024;-77
2023/02/14 05:26:31;;;;;;;25.63;15.45;;;3.50;99.90;;;;;;5118362;27;20028;-77
2023/02/14 05:28:57;;;;;;;25.90;15.80;;;3.50;99.90;;;;;;5086652;28;20063;-77
2023/02/14 05:31:23;;;;;;;20.90;14.68;;;3.50;99.90;;;;;;5102425;28;20034;-77
2023/02/14 05:33:49;;;;;;;24.05;14.82;;;3.50;99.90;;;;;;5086760;28;20027;-77
2023/02/14 05:36:14;;;;;;;26.33;15.73;;;3.30;99.90;;;;;;5102351;28;20028;-77
2023/02/14 05:38:40;;;;;;;21.55;15.30;;;3.20;99.90;;;;;;5105121;28;20032;-77
2023/02/14 05:41:08;;;;;;;21.42;14.45;;;3.30;99.90;;;;;;5085228;28;20035;-77
2023/02/14 05:43:34;;;;;;;23.40;15.13;;;3.30;99.90;;;;;;5106273;28;20383;-77
2023/02/14 05:45:59;;;;;;;24.47;14.53;;;3.30;99.90;;;;;;5101880;28;20020;-77
2023/02/14 05:48:25;;;;;;;24.33;15.43;;;3.40;99.90;;;;;;5102358;28;20031;-77
2023/02/14 05:50:51;;;;;;;23.60;15.57;;;3.30;99.90;;;;;;5120032;27;20140;-77
2023/02/14 05:53:16;;;;;;;26.88;16.10;;;3.30;99.90;;;;;;5101126;28;20134;-77
2023/02/14 05:55:42;;;;;;;23.30;14.45;;;3.20;99.90;;;;;;5083026;28;20020;-76
2023/02/14 05:58:08;;;;;;;23.75;14.48;;;3.10;99.90;;;;;;5102818;28;20080;-77
2023/02/14 06:00:34;;;;;;;22.47;14.30;;;3.00;99.90;;;;;;5081234;28;20505;-77
2023/02/14 06:03:00;;;;;;;24.07;15.87;;;3.10;99.90;;;;;;5101883;28;20024;-77
2023/02/14 06:05:26;;;;;;;21.77;14.17;;;3.10;99.90;;;;;;5118164;27;20065;-77
2023/02/14 06:07:52;;;;;;;20.23;13.47;;;3.10;99.90;;;;;;5117291;27;20016;-77
2023/02/14 06:10:19;;;;;;;23.23;13.65;;;3.20;99.90;;;;;;5100465;28;20399;-77
2023/02/14 06:12:47;;;;;;;21.57;14.03;;;3.30;99.90;;;;;;5105391;28;20027;-77
2023/02/14 06:15:13;;;;;;;24.95;15.10;;;3.30;99.90;;;;;;5085497;28;20107;-77
2023/02/14 06:17:39;;;;;;;23.57;15.03;;;3.20;99.90;;;;;;5103683;28;20490;-77
2023/02/14 06:20:05;;;;;;;22.63;15.03;;;3.20;99.90;;;;;;5101547;28;20103;-77
2023/02/14 06:22:31;;;;;;;24.30;14.93;;;3.20;99.90;;;;;;5102593;28;20368;-77
2023/02/14 06:24:56;;;;;;;28.43;15.57;;;3.10;99.90;;;;;;5104930;28;20081;-77
2023/02/14 06:27:22;;;;;;;22.67;14.55;;;3.00;99.90;;;;;;5099376;28;20468;-77
2023/02/14 06:29:49;;;;;;;23.30;14.87;;;3.00;99.90;;;;;;5083423;28;20491;-77
2023/02/14 06:32:14;;;;;;;21.97;14.47;;;3.00;99.90;;;;;;5115874;27;20072;-77
2023/02/14 06:34:40;;;;;;;25.17;14.23;;;3.10;99.90;;;;;;5084349;28;20449;-77
2023/02/14 06:37:06;;;;;;;20.50;14.37;;;3.10;99.90;;;;;;5102296;28;20023;-77
2023/02/14 06:39:32;;;;;;;21.43;14.13;;;3.10;99.90;;;;;;5085591;28;20376;-77
2023/02/14 06:41:58;;;;;;;22.37;14.37;;;3.00;99.90;;;;;;5099904;28;20031;-77
2023/02/14 06:44:24;;;;;;;21.87;13.73;;;2.80;99.90;;;;;;5101673;28;20031;-77
2023/02/14 06:46:49;;;;;;;22.67;14.30;;;2.90;99.90;;;;;;5100699;28;20036;-77
2023/02/14 06:49:15;;;;;;;21.20;12.90;;;3.00;99.90;;;;;;5112462;27;20153;-77
2023/02/14 06:51:41;;;;;;;21.70;13.20;;;3.10;99.90;;;;;;5101008;28;20024;-77
2023/02/14 06:54:06;;;;;;;21.00;13.33;;;3.20;99.90;;;;;;5118197;27;20024;-77
2023/02/14 06:56:32;;;;;;;21.97;13.73;;;3.20;99.90;;;;;;5083765;28;20287;-77
2023/02/14 06:58:58;;;;;;;27.10;16.07;;;3.20;99.90;;;;;;5116340;27;20084;-77
2023/02/14 07:01:23;;;;;;;29.70;17.23;;;3.30;99.90;;;;;;5116304;27;20482;-77
2023/02/14 07:03:49;;;;;;;26.40;16.33;;;3.30;99.90;;;;;;5082221;28;20024;-77
2023/02/14 07:06:15;;;;;;;26.43;17.27;;;3.40;99.90;;;;;;5118298;27;20028;-77
2023/02/14 07:08:41;;;;;;;32.97;19.10;;;3.40;99.90;;;;;;5102489;28;20016;-77
2023/02/14 07:11:06;;;;;;;26.80;17.77;;;3.40;99.90;;;;;;5100981;28;20043;-76
2023/02/14 07:13:36;;;;;;;27.03;16.67;;;3.40;99.90;;;;;;5082427;28;20049;-77
2023/02/14 07:16:01;;;;;;;27.23;16.77;;;3.50;99.90;;;;;;5075918;28;20076;-77
2023/02/14 07:18:27;;;;;;;26.63;15.93;;;3.60;99.90;;;;;;5103110;28;20017;-77
2023/02/14 07:20:53;;;;;;;23.50;14.67;;;3.60;99.90;;;;;;5113283;28;20053;-77
2023/02/14 07:23:18;;;;;;;24.30;14.82;;;3.70;99.90;;;;;;5113605;28;20019;-77
2023/02/14 07:25:44;;;;;;;27.05;15.73;;;3.80;99.90;;;;;;5113499;28;20051;-77
2023/02/14 07:28:10;;;;;;;23.15;15.98;;;3.80;99.90;;;;;;5125941;28;20063;-77
2023/02/14 07:30:35;;;;;;;26.95;16.17;;;3.90;99.90;;;;;;5093019;28;20024;-77
2023/02/14 07:33:01;;;;;;;35.22;18.95;;;3.90;99.90;;;;;;5092870;28;20028;-77
2023/02/14 07:35:27;;;;;;;31.67;18.88;;;3.90;99.90;;;;;;5079203;28;20027;-77
2023/02/14 07:37:52;;;;;;;39.42;20.98;;;4.00;99.90;;;;;;5105362;28;20111;-77
2023/02/14 07:40:18;;;;;;;39.80;21.67;;;4.00;99.90;;;;;;5129231;28;20024;-78
2023/02/14 07:42:52;;;;;;;42.22;23.17;;;4.10;99.90;;;;;;5121515;28;20049;-77
2023/02/14 07:45:18;;;;;;;41.45;23.40;;;4.10;99.90;;;;;;5093013;28;20551;-77
2023/02/14 07:47:43;;;;;;;51.35;25.90;;;4.20;99.90;;;;;;5096980;28;20016;-77
2023/02/14 07:50:09;;;;;;;44.75;25.17;;;4.20;99.90;;;;;;5096947;28;20024;-77
2023/02/14 07:52:38;;;;;;;48.17;25.65;;;4.20;99.90;;;;;;5096753;28;20135;-76
2023/02/14 07:55:03;;;;;;;47.17;25.65;;;4.30;99.90;;;;;;5078666;28;20027;-77
2023/02/14 07:57:29;;;;;;;43.08;24.40;;;4.40;99.90;;;;;;5096979;28;20110;-77
2023/02/14 07:59:55;;;;;;;41.53;23.05;;;4.40;99.90;;;;;;5127331;27;20510;-77
2023/02/14 08:02:20;;;;;;;34.65;21.75;;;4.50;99.90;;;;;;5120469;27;20689;-77
2023/02/14 08:04:49;;;;;;;41.58;23.25;;;4.60;99.90;;;;;;5123341;27;20047;-76
2023/02/14 08:07:14;;;;;;;37.92;22.25;;;4.60;99.90;;;;;;5107734;28;20020;-76
2023/02/14 08:09:40;;;;;;;41.88;21.70;;;4.70;99.90;;;;;;5089225;28;20114;-76
2023/02/14 08:14:52;;;;;;;38.90;19.40;;;4.70;99.90;;;;;;5105434;28;20142;-77
2023/02/14 08:17:18;;;;;;;36.60;19.83;;;4.70;99.90;;;;;;5100763;28;20029;-77
2023/02/14 08:19:44;;;;;;;38.88;22.42;;;4.70;99.90;;;;;;5111406;28;20035;-77
2023/02/14 08:22:09;;;;;;;36.58;22.88;;;4.80;99.90;;;;;;5088106;28;20059;-77
2023/02/14 08:24:35;;;;;;;39.88;24.98;;;4.80;99.90;;;;;;5112767;28;20391;-77
2023/02/14 08:27:01;;;;;;;38.90;23.70;;;4.80;99.90;;;;;;5112924;27;20110;-77
2023/02/14 08:29:27;;;;;;;37.15;23.50;;;4.90;99.90;;;;;;5078265;28;20111;-77
2023/02/14 08:31:53;;;;;;;39.10;24.70;;;5.00;99.90;;;;;;5096296;28;20060;-77
2023/02/14 08:34:19;;;;;;;39.45;23.88;;;5.10;99.90;;;;;;5099939;28;20476;-77
2023/02/14 08:36:44;;;;;;;37.65;23.52;;;5.20;99.90;;;;;;5095973;28;20028;-77
2023/02/14 08:39:10;;;;;;;36.03;23.73;;;5.20;99.90;;;;;;5100393;28;20039;-77
2023/02/14 08:41:36;;;;;;;36.72;23.90;;;5.30;99.90;;;;;;5099618;28;20137;-78
2023/02/14 08:44:02;;;;;;;48.78;28.98;;;5.40;99.90;;;;;;5103061;28;20030;-77
2023/02/14 08:46:28;;;;;;;49.55;28.00;;;5.50;99.90;;;;;;5087363;28;20050;-77
2023/02/14 08:48:54;;;;;;;49.20;28.17;;;5.60;99.90;;;;;;5085509;28;20020;-77
2023/02/14 08:51:21;;;;;;;45.05;26.27;;;5.60;99.90;;;;;;5081066;28;20027;-77
2023/02/14 08:53:50;;;;;;;40.70;24.77;;;5.70;99.90;;;;;;5103985;28;20036;-77
2023/02/14 08:56:16;;;;;;;39.65;23.52;;;5.80;99.90;;;;;;5105613;28;20027;-77
2023/02/14 08:58:42;;;;;;;42.15;23.20;;;5.90;99.90;;;;;;5079922;28;20074;-77
2023/02/14 09:01:16;;;;;;;39.90;24.30;;;5.90;99.90;;;;;;5102995;28;20051;-77
2023/02/14 09:03:42;;;;;;;43.60;24.25;;;6.00;99.90;;;;;;5103774;28;20024;-77
2023/02/14 09:06:11;;;;;;;39.15;23.75;;;6.10;99.90;;;;;;5099803;28;20027;-76
2023/02/14 09:08:38;;;;;;;38.97;22.40;;;6.10;99.90;;;;;;5095021;28;20108;-76
2023/02/14 09:11:17;;;;;;;38.58;23.92;;;6.10;99.90;;;;;;5103537;28;20079;-76
2023/02/14 09:13:43;;;;;;;47.08;25.30;;;6.10;99.90;;;;;;5078454;28;20031;-76
2023/02/14 09:16:11;;;;;;;41.88;26.42;;;6.20;99.90;;;;;;5100027;28;20023;-76
2023/02/14 09:18:37;;;;;;;49.55;28.30;;;6.30;99.90;;;;;;5101019;28;20085;-76
2023/02/14 09:21:07;;;;;;;51.22;28.83;;;6.40;99.90;;;;;;5099077;28;20423;-76
2023/02/14 09:23:33;;;;;;;44.08;28.27;;;6.50;99.90;;;;;;5100215;28;20030;-76
2023/02/14 09:26:05;;;;;;;53.33;28.77;;;6.80;99.90;;;;;;5099936;28;20094;-77
2023/02/14 09:28:31;;;;;;;47.33;28.77;;;6.80;99.90;;;;;;5099760;28;20392;-78
2023/02/14 09:30:57;;;;;;;51.28;29.08;;;6.90;99.90;;;;;;5101589;28;20016;-77
2023/02/14 09:33:25;;;;;;;49.95;29.17;;;6.90;99.90;;;;;;5097610;28;20024;-77
2023/02/14 09:35:51;;;;;;;42.83;25.63;;;7.00;99.90;;;;;;5101383;28;20028;-76
2023/02/14 09:38:17;;;;;;;45.67;27.40;;;6.90;99.90;;;;;;5098144;28;20032;-77
2023/02/14 09:40:44;;;;;;;45.70;26.45;;;7.00;99.90;;;;;;5116892;27;20075;-76
2023/02/14 09:43:13;;;;;;;46.38;25.40;;;7.00;99.90;;;;;;5099977;28;20031;-76
2023/02/14 09:45:39;;;;;;;42.40;25.25;;;7.00;99.90;;;;;;5098614;28;20066;-76
2023/02/14 09:48:22;;;;;;;46.15;25.88;;;7.00;99.90;;;;;;5079743;28;20553;-76
2023/02/14 09:50:53;;;;;;;41.95;24.75;;;7.00;99.90;;;;;;5098838;28;20020;-77
2023/02/14 09:53:34;;;;;;;47.05;25.65;;;7.10;99.90;;;;;;5095671;28;20083;-78
2023/02/14 09:56:06;;;;;;;44.95;26.42;;;7.20;99.90;;;;;;5097776;28;20023;-79
2023/02/14 09:58:49;;;;;;;42.25;24.90;;;7.30;99.90;;;;;;5080911;28;20039;-77
2023/02/14 10:01:25;;;;;;;43.85;26.27;;;7.40;99.90;;;;;;5097386;28;20046;-77
2023/02/14 10:03:51;;;;;;;42.83;24.67;;;7.50;99.90;;;;;;5104809;28;20359;-77
2023/02/14 10:06:44;;;;;;;42.63;25.10;;;7.80;99.90;;;;;;5079126;28;20066;-79
2023/02/14 10:09:40;;;;;;;41.22;22.98;;;7.90;99.90;;;;;;5079013;28;20393;-79
2023/02/14 10:12:15;;;;;;;37.47;21.50;;;7.90;99.90;;;;;;5060036;28;20091;-79
2023/02/14 10:14:41;;;;;;;34.95;23.00;;;8.10;99.90;;;;;;5061492;28;20035;-79
2023/02/14 10:17:16;;;;;;;36.17;21.83;;;8.10;99.90;;;;;;5097361;28;20036;-79
2023/02/14 10:19:51;;;;;;;35.28;22.65;;;8.10;99.90;;;;;;5060677;28;20271;-79
2023/02/14 10:22:20;;;;;;;38.25;22.80;;;8.10;99.90;;;;;;5061090;28;20087;-78
2023/02/14 10:24:56;;;;;;;44.33;24.40;;;8.20;99.90;;;;;;5093810;28;20029;-79
2023/02/14 10:27:42;;;;;;;38.28;23.13;;;8.20;99.90;;;;;;5090241;28;20033;-79
2023/02/14 10:30:16;;;;;;;39.70;23.13;;;8.20;99.90;;;;;;5091570;28;20028;-79
2023/02/14 10:32:45;;;;;;;41.60;23.75;;;8.30;99.90;;;;;;5061107;28;20033;-80
2023/02/14 10:35:15;;;;;;;43.85;24.20;;;8.40;99.90;;;;;;5056425;28;20299;-80
2023/02/14 10:37:54;;;;;;;43.75;25.05;;;8.50;99.90;;;;;;5059206;28;20082;-79
2023/02/14 10:40:41;;;;;;;38.00;23.38;;;8.50;99.90;;;;;;5056163;28;20086;-79
2023/02/14 10:43:34;;;;;;;44.75;24.17;;;8.50;99.90;;;;;;5055206;28;20025;-79
2023/02/14 10:46:26;;;;;;;39.83;23.77;;;8.60;99.90;;;;;;5057125;28;20034;-80
2023/02/14 10:49:30;;;;;;;42.47;23.52;;;8.60;99.90;;;;;;5057261;28;20112;-79
2023/02/14 10:52:08;;;;;;;42.72;24.23;;;8.60;99.90;;;;;;5004692;28;20052;-79
2023/02/14 10:54:38;;;;;;;42.80;23.63;;;8.80;99.90;;;;;;5059137;28;20024;-79
2023/02/14 10:57:18;;;;;;;44.72;23.77;;;9.00;99.90;;;;;;5056253;28;20032;-79
2023/02/14 10:59:54;;;;;;;40.17;21.80;;;9.10;99.90;;;;;;5060391;28;20481;-79
2023/02/14 11:02:52;;;;;;;43.42;22.63;;;9.30;99.90;;;;;;5060315;28;20082;-80
2023/02/14 11:05:31;;;;;;;41.22;22.92;;;9.30;99.90;;;;;;5053390;28;20044;-80
2023/02/14 11:07:57;;;;;;;43.47;22.88;;;9.50;99.90;;;;;;5060394;28;20444;-80
2023/02/14 11:10:27;;;;;;;42.00;22.13;;;9.50;99.90;;;;;;5099766;27;20528;-79
2023/02/14 11:12:52;;;;;;;37.50;22.10;;;9.60;99.90;;;;;;5073297;28;20029;-79
2023/02/14 11:15:32;;;;;;;39.63;21.38;;;9.70;99.90;;;;;;5080985;28;20434;-79
2023/02/14 11:18:15;;;;;;;31.80;20.42;;;9.80;99.90;;;;;;5075336;28;20028;-80
2023/02/14 11:20:41;;;;;;;36.13;18.55;;;9.90;99.90;;;;;;5078291;28;20033;-80
2023/02/14 11:23:20;;;;;;;32.83;18.45;;;10.10;99.90;;;;;;5082926;28;20030;-79
2023/02/14 11:25:51;;;;;;;37.35;19.65;;;10.30;99.90;;;;;;5083268;28;20039;-80
2023/02/14 11:28:18;;;;;;;32.25;19.35;;;10.30;99.90;;;;;;5077814;28;20032;-79
2023/02/14 11:30:46;;;;;;;34.90;18.65;;;10.40;99.90;;;;;;5082515;28;20418;-80
2023/02/14 11:33:31;;;;;;;38.53;19.05;;;10.50;99.90;;;;;;5080328;28;20089;-80
2023/02/14 11:35:58;;;;;;;35.50;17.92;;;10.60;99.90;;;;;;5082539;28;20032;-80
2023/02/14 11:38:32;;;;;;;31.67;17.63;;;10.70;99.90;;;;;;5080194;28;20116;-79
2023/02/14 11:40:58;;;;;;;30.85;17.42;;;10.70;99.90;;;;;;5081502;28;20058;-80
2023/02/14 11:43:39;;;;;;;28.60;16.63;;;10.70;99.90;;;;;;5077944;28;20099;-80
2023/02/14 11:46:14;;;;;;;29.20;16.58;;;10.70;99.90;;;;;;5078197;28;20029;-79
2023/02/14 11:48:56;;;;;;;27.13;14.90;;;10.90;99.90;;;;;;5078091;28;20486;-80
2023/02/14 11:51:37;;;;;;;23.45;14.38;;;11.00;99.90;;;;;;5082719;28;20501;-79
2023/02/14 11:54:04;;;;;;;25.25;15.05;;;11.00;99.90;;;;;;5080119;28;20030;-79
2023/02/14 11:56:55;;;;;;;25.60;13.80;;;11.10;99.90;;;;;;5079854;28;20074;-79
2023/02/14 11:59:36;;;;;;;24.65;14.10;;;11.20;99.90;;;;;;5082496;28;20028;-79
2023/02/14 12:02:21;;;;;;;25.65;15.45;;;11.20;99.90;;;;;;5078719;28;20021;-79
2023/02/14 12:04:51;;;;;;;27.00;15.23;;;11.40;99.90;;;;;;5079021;28;20022;-79
2023/02/14 12:07:27;;;;;;;25.33;15.50;;;11.40;99.90;;;;;;5079549;28;20602;-79
2023/02/14 12:10:16;;;;;;;24.67;15.32;;;11.50;99.90;;;;;;5081698;28;20073;-79
2023/02/14 12:13:03;;;;;;;25.15;15.52;;;12.00;99.90;;;;;;5082470;28;20031;-79
2023/02/14 12:15:48;;;;;;;26.65;15.23;;;12.00;99.90;;;;;;5093531;28;20028;-78
2023/02/14 12:18:38;;;;;;;24.50;14.32;;;12.00;99.90;;;;;;5078686;28;20080;-79
2023/02/14 12:21:41;;;;;;;32.63;15.40;;;12.10;99.90;;;;;;5101214;28;20433;-79
2023/02/14 12:24:25;;;;;;;;;;;12.10;99.90;;;;;;5097071;28;20031;-79
2023/02/14 12:27:18;;;;;;;22.92;14.35;;;12.30;99.90;;;;;;5103019;28;19903;-79
2023/02/14 12:29:58;;;;;;;22.65;13.25;;;12.30;99.90;;;;;;5093736;28;20036;-79
2023/02/14 12:32:27;;;;;;;28.98;14.40;;;12.40;99.90;;;;;;5101307;28;20089;-79
2023/02/14 12:35:00;;;;;;;22.55;13.38;;;12.50;99.90;;;;;;5085140;28;20110;-79
2023/02/14 12:37:44;;;;;;;23.02;14.02;;;12.40;99.90;;;;;;5103673;28;20034;-79
2023/02/14 12:40:20;;;;;;;23.15;14.00;;;12.60;99.90;;;;;;5104381;28;20497;-79
2023/02/14 12:43:31;;;;;;;32.63;14.05;;;12.70;99.90;;;;;;5067028;28;20039;-79
2023/02/14 12:46:15;;;;;;;21.95;13.23;;;12.80;99.90;;;;;;5017510;28;20498;-79
2023/02/14 12:49:13;;;;;;;25.45;14.43;;;12.80;99.90;;;;;;5117799;27;20036;-79
2023/02/14 12:52:11;;;;;;;29.17;15.38;;;12.80;99.90;;;;;;5101322;28;20032;-79
2023/02/14 12:54:45;;;;;;;30.52;14.35;;;12.70;99.90;;;;;;5077240;28;20062;-79
2023/02/14 12:57:25;;;;;;;35.95;15.93;;;12.60;99.90;;;;;;5098977;28;20475;-79
2023/02/14 13:00:00;;;;;;;27.55;15.27;;;12.70;99.90;;;;;;5084472;28;20039;-79
2023/02/14 13:02:31;;;;;;;32.50;16.17;;;12.80;99.90;;;;;;5104166;28;20111;-79
2023/02/14 13:05:05;;;;;;;27.90;13.65;;;12.90;99.90;;;;;;5106053;28;20031;-79
2023/02/14 13:08:10;;;;;;;30.42;14.32;;;12.90;99.90;;;;;;5104329;28;20024;-79
2023/02/14 13:10:52;;;;;;;31.55;13.90;;;12.90;99.90;;;;;;5098784;28;20048;-79
2023/02/14 13:13:35;;;;;;;33.75;16.35;;;12.80;99.90;;;;;;5102874;28;20394;-79
2023/02/14 13:16:30;;;;;;;31.75;15.65;;;12.70;99.90;;;;;;5103986;28;20548;-79
2023/02/14 13:19:17;;;;;;;31.20;15.57;;;12.70;99.90;;;;;;5080149;28;20100;-79